Weather reports worldwide

Advertisment
Rolo, Italy (16143): temperature & dewpoint: 18.01.2019 00:00:00 - 24.01.2019 00:00:00 (CET)Rolo, Italy (16143): wind speed: 18.01.2019 00:00:00 - 24.01.2019 00:00:00 (CET)Rolo, Italy (16143): wind direction: 18.01.2019 00:00:00 - 24.01.2019 00:00:00 (CET)Rolo, Italy (16143): reduced air pressure: 18.01.2019 00:00:00 - 24.01.2019 00:00:00 (CET)Rolo, Italy (16143): precipitation: 18.01.2019 00:00:00 - 24.01.2019 00:00:00 (CET)
Date & Time tt [°C] td [°C] ff [km/h] ff [kn] dd ppp [hPa] rr [mm]
24.01.2019 00:00:00 - - - - - - -
23.01.2019 23:00:00 1,3 -0,9 14 8 N 996,5 0,0
23.01.2019 22:00:00 1,3 -1,1 17 9 NE 996,8 0,0
23.01.2019 21:00:00 1,2 -1,0 19 10 NE 996,5 0,0
23.01.2019 20:00:00 1,4 -1,5 18 10 ENE 996,4 0,0
23.01.2019 19:00:00 1,7 -1,4 20 11 NE 996,1 0,0
23.01.2019 18:00:00 2,0 -1,3 18 10 ENE 996,1 0,0
23.01.2019 17:00:00 2,5 -1,1 16 9 ENE 995,9 0,0
23.01.2019 16:00:00 3,0 -0,8 16 9 ENE 996,1 0,0
23.01.2019 15:00:00 3,3 -0,9 18 10 ENE 996,2 0,0
23.01.2019 14:00:00 3,4 -0,4 16 9 ENE 996,6 0,0
23.01.2019 13:00:00 3,4 -0,1 17 9 ENE 997,4 0,0
23.01.2019 12:00:00 2,8 0,0 16 8 E 998,2 0,0
23.01.2019 11:00:00 1,6 -0,2 14 8 ENE 999,0 0,0
23.01.2019 10:00:00 1,3 -0,5 12 6 E 999,4 0,0
23.01.2019 09:00:00 0,6 -0,9 13 7 E 999,2 0,0
23.01.2019 08:00:00 0,5 -0,8 16 9 E 999,5 0,0
23.01.2019 07:00:00 0,6 -0,9 8 5 E 999,6 0,0
23.01.2019 06:00:00 0,7 -0,6 9 5 ESE 999,7 0,0
23.01.2019 05:00:00 1,0 -0,3 9 5 SE 1000,2 0,2
23.01.2019 04:00:00 1,1 -0,2 6 4 SSE 1000,8 0,0
23.01.2019 03:00:00 1,2 -0,3 - - - 1001,6 0,2
23.01.2019 02:00:00 1,5 -0,1 9 5 S 1002,1 0,0
23.01.2019 01:00:00 1,8 0,0 7 4 S 1002,6 0,0
23.01.2019 00:00:00 1,8 -0,1 9 5 S 1003,1 0,0
22.01.2019 23:00:00 2,0 -0,1 11 6 SSW 1003,5 0,0
22.01.2019 22:00:00 2,1 -0,3 13 7 SSW 1003,8 0,2
22.01.2019 21:00:00 2,8 -0,7 11 6 SSW 1004,2 0,0
22.01.2019 20:00:00 3,3 -1,1 6 3 ENE 1004,4 0,0
22.01.2019 19:00:00 4,0 -2,6 10 6 W 1004,6 0,0
22.01.2019 18:00:00 3,8 -1,6 - - - 1004,9 -
22.01.2019 17:00:00 4,2 -0,8 7 4 WSW 1005,3 0,0
22.01.2019 16:00:00 4,8 -1,2 9 5 WSW 1005,7 0,0
22.01.2019 15:00:00 4,9 -1,6 10 6 W 1006,4 0,0
22.01.2019 14:00:00 4,7 -0,5 12 6 W 1007,4 0,0
22.01.2019 13:00:00 4,2 0,3 12 6 W 1008,6 0,0
22.01.2019 12:00:00 2,3 0,8 12 6 W 1010,0 0,0
22.01.2019 11:00:00 -0,1 -1,1 6 3 W 1011,0 0,0
22.01.2019 10:00:00 -1,3 -2,3 6 4 WNW 1011,4 0,0
22.01.2019 09:00:00 -1,6 -2,6 9 5 WNW 1011,7 0,0
22.01.2019 08:00:00 -1,0 -2,0 6 3 W 1011,8 0,0
22.01.2019 07:00:00 -0,8 -1,8 8 5 WSW 1012,2 0,0
22.01.2019 06:00:00 -1,6 -2,7 5 3 W 1012,5 0,0
22.01.2019 05:00:00 -1,8 -2,9 5 3 W 1013,0 0,0
22.01.2019 04:00:00 -1,2 -2,5 7 4 W 1013,7 0,0
22.01.2019 03:00:00 -0,5 -1,8 6 3 NW 1014,5 0,0
22.01.2019 02:00:00 0,7 -1,1 7 4 WNW 1014,8 0,0
22.01.2019 01:00:00 1,1 -0,8 9 5 W 1015,6 0,0
22.01.2019 00:00:00 1,8 -0,5 8 4 W 1015,9 0,0
21.01.2019 23:00:00 1,5 -0,7 4 2 WSW 1016,2 0,0
21.01.2019 22:00:00 2,0 -0,4 5 3 WSW 1016,4 0,0
21.01.2019 21:00:00 1,7 -0,2 4 2 W 1016,4 0,0
21.01.2019 20:00:00 2,4 -0,2 1 1 SW 1016,5 0,0
21.01.2019 19:00:00 2,7 0,1 5 3 W 1016,4 0,0
21.01.2019 18:00:00 3,6 0,3 5 3 WSW 1016,3 0,0
21.01.2019 17:00:00 4,1 0,4 6 3 SW 1016,6 0,0
21.01.2019 16:00:00 4,6 0,2 8 4 WSW 1016,7 0,0
21.01.2019 15:00:00 4,8 0,0 8 4 WSW 1016,9 0,0
21.01.2019 14:00:00 4,9 -0,1 8 4 W 1017,2 0,0
21.01.2019 13:00:00 4,7 0,1 8 4 W 1017,8 0,0
21.01.2019 12:00:00 3,9 0,9 6 3 WNW 1018,3 0,0
21.01.2019 11:00:00 2,6 0,8 7 4 W 1018,6 0,0
21.01.2019 10:00:00 1,9 0,3 7 4 W 1018,4 0,0
21.01.2019 09:00:00 1,0 -0,3 4 2 SSW 1018,1 0,0
21.01.2019 08:00:00 0,4 -0,9 4 2 W 1017,9 0,0
21.01.2019 07:00:00 -0,5 -1,6 6 3 WNW 1017,5 0,0
21.01.2019 06:00:00 -0,8 -2,1 2 1 SSW 1017,5 0,0
21.01.2019 05:00:00 -0,2 -1,3 3 2 WNW 1017,3 0,0
21.01.2019 04:00:00 -0,2 -1,3 3 2 SSW 1017,4 0,0
21.01.2019 03:00:00 -0,2 -1,5 - - - 1017,6 -
21.01.2019 02:00:00 0,3 -1,3 2 1 NNW 1017,6 0,0
21.01.2019 01:00:00 1,0 -0,6 3 2 NNW 1017,5 0,0
21.01.2019 00:00:00 1,1 -0,7 5 3 N 1017,7 0,0
20.01.2019 23:00:00 1,5 -0,3 5 3 NNW 1017,5 0,0
20.01.2019 22:00:00 2,4 -0,2 6 4 E 1017,2 0,0
20.01.2019 21:00:00 1,3 -0,6 5 3 NNE 1016,9 0,0
20.01.2019 20:00:00 1,2 -0,6 3 2 NNE 1016,6 0,0
20.01.2019 19:00:00 - - - - - - -
20.01.2019 18:00:00 3,1 -0,2 - - - 1015,7 -
20.01.2019 17:00:00 4,5 0,6 4 2 ESE 1015,4 0,0
20.01.2019 16:00:00 5,5 0,9 3 2 E 1015,3 0,0
20.01.2019 15:00:00 6,0 0,7 3 1 ESE 1015,3 0,0
20.01.2019 14:00:00 5,4 0,6 1 1 S 1015,5 0,0
20.01.2019 13:00:00 5,3 0,3 2 1 N 1016,0 0,0
20.01.2019 12:00:00 5,2 0,2 3 1 N 1016,3 0,0
20.01.2019 11:00:00 4,1 0,3 0 0 NNW 1016,5 0,0
20.01.2019 10:00:00 2,1 0,3 1 1 NNW 1016,0 0,0
20.01.2019 09:00:00 0,7 -0,6 1 1 NNW 1015,7 0,0
20.01.2019 08:00:00 0,5 -0,6 0 0 NNW 1015,3 0,0
20.01.2019 07:00:00 -0,3 -1,4 4 2 NNW 1015,0 0,0
20.01.2019 06:00:00 0,0 -1,1 3 1 W 1014,9 -
20.01.2019 05:00:00 -0,4 -1,5 - - - 1015,1 0,0
20.01.2019 04:00:00 0,7 -0,6 0 0 W 1015,3 0,0
20.01.2019 03:00:00 1,4 -0,2 2 1 W 1015,6 0,0
20.01.2019 02:00:00 1,6 0,0 - - - 1015,6 0,0
20.01.2019 01:00:00 1,8 0,0 1 1 SW 1015,9 0,0
20.01.2019 00:00:00 2,1 0,0 - - - 1016,4 0,0
19.01.2019 23:00:00 2,1 -0,2 - - - 1016,4 -
19.01.2019 22:00:00 2,0 -0,1 2 1 NNW 1016,4 0,0
19.01.2019 21:00:00 1,6 -0,5 2 1 NNW 1016,2 0,0
19.01.2019 20:00:00 2,3 -0,1 1 1 N 1016,2 0,0
19.01.2019 19:00:00 2,3 0,2 3 2 N 1016,1 0,0
19.01.2019 18:00:00 3,0 0,1 - - - 1016,1 0,0
19.01.2019 17:00:00 4,7 0,5 - - - 1016,1 0,0
19.01.2019 16:00:00 5,4 0,2 3 2 SE 1016,3 0,0
19.01.2019 15:00:00 5,2 0,2 6 4 E 1016,3 0,0
19.01.2019 14:00:00 5,1 -0,5 8 4 NE 1016,6 0,0
19.01.2019 13:00:00 5,1 -0,7 6 4 NE 1017,3 0,0
19.01.2019 12:00:00 4,4 -0,8 5 3 W 1018,1 0,0
19.01.2019 11:00:00 4,0 -1,2 1 1 ESE 1018,4 0,0
19.01.2019 10:00:00 3,3 -1,1 4 2 ENE 1018,0 0,0
19.01.2019 09:00:00 2,8 -0,3 1 0 ENE 1017,6 0,0
19.01.2019 08:00:00 2,8 -0,7 - - - 1017,4 0,0
19.01.2019 07:00:00 2,5 0,2 3 1 N 1017,2 0,0
19.01.2019 06:00:00 2,8 -0,1 1 1 ENE 1017,3 0,0
19.01.2019 05:00:00 3,1 0,2 8 4 E 1017,2 0,6
19.01.2019 04:00:00 3,4 0,3 17 9 NE 1017,3 0,2
19.01.2019 03:00:00 4,1 -0,1 19 10 ENE 1017,4 0,0
19.01.2019 02:00:00 4,3 -0,3 19 11 NE 1017,0 0,0
19.01.2019 01:00:00 4,0 0,9 22 12 NE 1016,9 0,2
19.01.2019 00:00:00 4,2 1,7 21 12 NNE 1017,2 0,0
18.01.2019 23:00:00 - - - - - - -
18.01.2019 22:00:00 5,0 2,2 24 13 NE 1016,4 0,0
18.01.2019 21:00:00 5,5 2,1 20 11 NE 1016,0 0,0
18.01.2019 20:00:00 5,8 2,4 17 9 NNE 1015,6 0,0
18.01.2019 19:00:00 5,8 2,1 9 5 NNE 1015,7 0,0
18.01.2019 18:00:00 6,0 2,1 16 8 NE 1015,2 0,0
18.01.2019 17:00:00 6,2 3,2 16 9 NE 1015,0 0,0
18.01.2019 16:00:00 6,6 4,1 18 10 ENE 1014,6 0,0
18.01.2019 15:00:00 8,0 4,2 12 6 ENE 1013,8 0,0
18.01.2019 14:00:00 7,5 4,1 18 10 NE 1013,4 0,0
18.01.2019 13:00:00 7,8 3,1 9 5 NE 1012,9 0,0
18.01.2019 12:00:00 7,7 3,0 3 2 WNW 1012,8 0,0
18.01.2019 11:00:00 5,9 3,1 6 4 WNW 1012,8 0,0
18.01.2019 10:00:00 6,7 3,7 10 5 WNW 1012,1 0,0
18.01.2019 09:00:00 4,3 2,8 10 5 SW 1011,2 0,0
18.01.2019 08:00:00 4,1 2,6 5 3 WNW 1010,5 0,0
18.01.2019 07:00:00 4,7 3,0 6 3 WNW 1010,2 0,0
18.01.2019 06:00:00 4,5 3,2 12 6 SW 1010,1 0,0
18.01.2019 05:00:00 4,3 3,0 10 6 SW 1009,8 0,2
18.01.2019 04:00:00 4,3 3,0 6 4 SSW 1010,0 0,6
18.01.2019 03:00:00 4,3 3,0 14 7 W 1010,7 0,4
18.01.2019 02:00:00 4,4 3,1 4 2 SW 1010,4 1,2
18.01.2019 01:00:00 4,1 2,8 8 5 W 1010,5 0,2
18.01.2019 00:00:00 3,9 2,6 6 3 WNW 1010,8 0,0

tt = temperature
td = dewpoint
ff = wind speed
dd = wind direction
ppp = reduced air pressure
rr = precipitation

Next stations